sensor_id;sensor_type;location;lat;lon;timestamp;P1;durP1;ratioP1;P2;durP2;ratioP2
68995;SDS011;56056;48.990;12.146;2023-04-01T00:00:43;616.67;;;579.60;;
68995;SDS011;56056;48.990;12.146;2023-04-01T00:03:09;1289.97;;;822.88;;
68995;SDS011;56056;48.990;12.146;2023-04-01T00:05:36;852.67;;;789.95;;
68995;SDS011;56056;48.990;12.146;2023-04-01T00:08:02;676.67;;;639.00;;
68995;SDS011;56056;48.990;12.146;2023-04-01T00:10:28;565.65;;;532.78;;
68995;SDS011;56056;48.990;12.146;2023-04-01T00:12:53;631.25;;;597.38;;
68995;SDS011;56056;48.990;12.146;2023-04-01T00:15:19;684.78;;;648.20;;
68995;SDS011;56056;48.990;12.146;2023-04-01T00:17:45;635.42;;;600.00;;
68995;SDS011;56056;48.990;12.146;2023-04-01T00:20:11;696.67;;;655.55;;
68995;SDS011;56056;48.990;12.146;2023-04-01T00:22:40;656.88;;;620.88;;
68995;SDS011;56056;48.990;12.146;2023-04-01T00:25:06;831.83;;;764.15;;
68995;SDS011;56056;48.990;12.146;2023-04-01T00:27:32;902.13;;;823.63;;
68995;SDS011;56056;48.990;12.146;2023-04-01T00:29:58;602.80;;;571.03;;
68995;SDS011;56056;48.990;12.146;2023-04-01T00:32:24;606.03;;;574.67;;
68995;SDS011;56056;48.990;12.146;2023-04-01T00:34:51;632.67;;;597.90;;
68995;SDS011;56056;48.990;12.146;2023-04-01T00:37:17;645.13;;;608.92;;
68995;SDS011;56056;48.990;12.146;2023-04-01T00:39:44;625.55;;;591.92;;
68995;SDS011;56056;48.990;12.146;2023-04-01T00:42:11;706.70;;;666.83;;
68995;SDS011;56056;48.990;12.146;2023-04-01T00:44:38;678.40;;;639.42;;
68995;SDS011;56056;48.990;12.146;2023-04-01T00:47:03;649.67;;;612.33;;
68995;SDS011;56056;48.990;12.146;2023-04-01T00:49:30;616.67;;;584.10;;
68995;SDS011;56056;48.990;12.146;2023-04-01T00:51:58;686.25;;;647.67;;
68995;SDS011;56056;48.990;12.146;2023-04-01T00:54:25;1045.35;;;928.53;;
68995;SDS011;56056;48.990;12.146;2023-04-01T00:56:54;779.97;;;731.42;;
68995;SDS011;56056;48.990;12.146;2023-04-01T00:59:23;842.65;;;784.70;;
68995;SDS011;56056;48.990;12.146;2023-04-01T01:01:50;511.15;;;480.30;;
68995;SDS011;56056;48.990;12.146;2023-04-01T01:04:26;710.83;;;670.53;;
68995;SDS011;56056;48.990;12.146;2023-04-01T01:06:55;709.08;;;667.65;;
68995;SDS011;56056;48.990;12.146;2023-04-01T01:09:30;543.70;;;517.65;;
68995;SDS011;56056;48.990;12.146;2023-04-01T01:12:03;737.45;;;694.13;;
68995;SDS011;56056;48.990;12.146;2023-04-01T01:14:35;634.22;;;602.03;;
68995;SDS011;56056;48.990;12.146;2023-04-01T01:17:06;872.47;;;813.92;;
68995;SDS011;56056;48.990;12.146;2023-04-01T01:19:43;744.17;;;700.92;;
68995;SDS011;56056;48.990;12.146;2023-04-01T01:22:30;629.15;;;596.00;;
68995;SDS011;56056;48.990;12.146;2023-04-01T01:25:07;643.90;;;609.78;;
68995;SDS011;56056;48.990;12.146;2023-04-01T01:27:42;605.53;;;575.45;;
68995;SDS011;56056;48.990;12.146;2023-04-01T01:30:27;577.92;;;548.45;;
68995;SDS011;56056;48.990;12.146;2023-04-01T01:33:24;617.28;;;585.70;;
68995;SDS011;56056;48.990;12.146;2023-04-01T01:36:08;608.10;;;575.75;;
68995;SDS011;56056;48.990;12.146;2023-04-01T01:38:35;622.63;;;591.40;;
68995;SDS011;56056;48.990;12.146;2023-04-01T01:41:01;839.53;;;764.80;;
68995;SDS011;56056;48.990;12.146;2023-04-01T01:43:30;680.00;;;639.20;;
68995;SDS011;56056;48.990;12.146;2023-04-01T01:45:59;631.72;;;597.83;;
68995;SDS011;56056;48.990;12.146;2023-04-01T01:48:26;646.65;;;613.63;;
68995;SDS011;56056;48.990;12.146;2023-04-01T01:50:53;771.20;;;719.67;;
68995;SDS011;56056;48.990;12.146;2023-04-01T01:53:20;738.63;;;692.88;;
68995;SDS011;56056;48.990;12.146;2023-04-01T01:55:46;852.65;;;772.72;;
68995;SDS011;56056;48.990;12.146;2023-04-01T01:58:13;578.20;;;546.38;;
68995;SDS011;56056;48.990;12.146;2023-04-01T02:00:43;667.85;;;631.15;;
68995;SDS011;56056;48.990;12.146;2023-04-01T02:03:10;743.03;;;697.60;;
68995;SDS011;56056;48.990;12.146;2023-04-01T02:05:37;964.42;;;804.33;;
68995;SDS011;56056;48.990;12.146;2023-04-01T02:08:04;697.78;;;657.22;;
68995;SDS011;56056;48.990;12.146;2023-04-01T02:10:34;713.83;;;671.45;;
68995;SDS011;56056;48.990;12.146;2023-04-01T02:13:03;696.80;;;645.83;;
68995;SDS011;56056;48.990;12.146;2023-04-01T02:15:33;680.47;;;643.30;;
68995;SDS011;56056;48.990;12.146;2023-04-01T02:18:08;768.85;;;720.38;;
68995;SDS011;56056;48.990;12.146;2023-04-01T02:20:34;694.55;;;655.28;;
68995;SDS011;56056;48.990;12.146;2023-04-01T02:23:01;798.53;;;746.75;;
68995;SDS011;56056;48.990;12.146;2023-04-01T02:25:27;696.60;;;654.33;;
68995;SDS011;56056;48.990;12.146;2023-04-01T02:27:56;877.08;;;812.47;;
68995;SDS011;56056;48.990;12.146;2023-04-01T02:30:23;643.75;;;608.13;;
68995;SDS011;56056;48.990;12.146;2023-04-01T02:32:50;659.35;;;622.35;;
68995;SDS011;56056;48.990;12.146;2023-04-01T02:35:16;698.83;;;657.50;;
68995;SDS011;56056;48.990;12.146;2023-04-01T02:37:42;671.95;;;635.53;;
68995;SDS011;56056;48.990;12.146;2023-04-01T02:40:10;822.65;;;762.67;;
68995;SDS011;56056;48.990;12.146;2023-04-01T02:42:37;854.80;;;774.80;;
68995;SDS011;56056;48.990;12.146;2023-04-01T02:45:05;832.97;;;774.08;;
68995;SDS011;56056;48.990;12.146;2023-04-01T02:47:31;594.22;;;562.00;;
68995;SDS011;56056;48.990;12.146;2023-04-01T02:49:57;693.47;;;635.20;;
68995;SDS011;56056;48.990;12.146;2023-04-01T02:52:23;722.22;;;681.45;;
68995;SDS011;56056;48.990;12.146;2023-04-01T02:54:49;608.67;;;574.92;;
68995;SDS011;56056;48.990;12.146;2023-04-01T02:57:15;656.25;;;620.38;;
68995;SDS011;56056;48.990;12.146;2023-04-01T02:59:40;807.28;;;752.88;;
68995;SDS011;56056;48.990;12.146;2023-04-01T03:02:07;1181.40;;;865.30;;
68995;SDS011;56056;48.990;12.146;2023-04-01T03:04:33;793.75;;;740.78;;
68995;SDS011;56056;48.990;12.146;2023-04-01T03:06:59;648.45;;;612.85;;
68995;SDS011;56056;48.990;12.146;2023-04-01T03:09:24;1038.50;;;827.53;;
68995;SDS011;56056;48.990;12.146;2023-04-01T03:11:50;828.72;;;757.28;;
68995;SDS011;56056;48.990;12.146;2023-04-01T03:14:16;619.78;;;585.03;;
68995;SDS011;56056;48.990;12.146;2023-04-01T03:16:41;754.83;;;711.63;;
68995;SDS011;56056;48.990;12.146;2023-04-01T03:19:08;753.95;;;707.55;;
68995;SDS011;56056;48.990;12.146;2023-04-01T03:21:34;948.35;;;855.70;;
68995;SDS011;56056;48.990;12.146;2023-04-01T03:24:00;835.08;;;782.58;;
68995;SDS011;56056;48.990;12.146;2023-04-01T03:26:26;824.25;;;759.78;;
68995;SDS011;56056;48.990;12.146;2023-04-01T03:28:54;879.33;;;812.28;;
68995;SDS011;56056;48.990;12.146;2023-04-01T03:31:20;603.80;;;572.15;;
68995;SDS011;56056;48.990;12.146;2023-04-01T03:33:46;745.08;;;701.30;;
68995;SDS011;56056;48.990;12.146;2023-04-01T03:36:13;624.22;;;589.10;;
68995;SDS011;56056;48.990;12.146;2023-04-01T03:38:39;657.50;;;622.17;;
68995;SDS011;56056;48.990;12.146;2023-04-01T03:41:06;765.65;;;714.05;;
68995;SDS011;56056;48.990;12.146;2023-04-01T03:43:31;559.53;;;532.72;;
68995;SDS011;56056;48.990;12.146;2023-04-01T03:45:57;576.40;;;546.90;;
68995;SDS011;56056;48.990;12.146;2023-04-01T03:48:23;555.55;;;527.03;;
68995;SDS011;56056;48.990;12.146;2023-04-01T03:50:50;568.72;;;537.40;;
68995;SDS011;56056;48.990;12.146;2023-04-01T03:53:17;714.13;;;672.67;;
68995;SDS011;56056;48.990;12.146;2023-04-01T03:55:43;616.15;;;582.55;;
68995;SDS011;56056;48.990;12.146;2023-04-01T03:58:08;715.33;;;671.70;;
68995;SDS011;56056;48.990;12.146;2023-04-01T04:00:34;666.05;;;631.22;;
68995;SDS011;56056;48.990;12.146;2023-04-01T04:03:00;615.40;;;582.45;;
68995;SDS011;56056;48.990;12.146;2023-04-01T04:05:26;651.80;;;614.80;;
68995;SDS011;56056;48.990;12.146;2023-04-01T04:07:52;634.65;;;601.08;;
68995;SDS011;56056;48.990;12.146;2023-04-01T04:10:19;578.55;;;547.35;;
68995;SDS011;56056;48.990;12.146;2023-04-01T04:12:45;638.17;;;605.22;;
68995;SDS011;56056;48.990;12.146;2023-04-01T04:15:11;615.95;;;582.45;;
68995;SDS011;56056;48.990;12.146;2023-04-01T04:17:37;558.13;;;528.95;;
68995;SDS011;56056;48.990;12.146;2023-04-01T04:20:03;666.00;;;630.30;;
68995;SDS011;56056;48.990;12.146;2023-04-01T04:22:29;669.05;;;630.67;;
68995;SDS011;56056;48.990;12.146;2023-04-01T04:24:55;608.45;;;575.58;;
68995;SDS011;56056;48.990;12.146;2023-04-01T04:27:22;643.20;;;606.85;;
68995;SDS011;56056;48.990;12.146;2023-04-01T04:29:48;619.65;;;588.38;;
68995;SDS011;56056;48.990;12.146;2023-04-01T04:32:13;1035.20;;;701.25;;
68995;SDS011;56056;48.990;12.146;2023-04-01T04:34:39;765.42;;;703.75;;
68995;SDS011;56056;48.990;12.146;2023-04-01T04:37:04;579.45;;;548.85;;
68995;SDS011;56056;48.990;12.146;2023-04-01T04:39:30;604.80;;;571.40;;
68995;SDS011;56056;48.990;12.146;2023-04-01T04:41:56;587.90;;;558.50;;
68995;SDS011;56056;48.990;12.146;2023-04-01T04:44:23;757.45;;;694.53;;
68995;SDS011;56056;48.990;12.146;2023-04-01T04:46:48;754.75;;;696.13;;
68995;SDS011;56056;48.990;12.146;2023-04-01T04:49:14;602.92;;;567.38;;
68995;SDS011;56056;48.990;12.146;2023-04-01T04:51:40;693.70;;;652.58;;
68995;SDS011;56056;48.990;12.146;2023-04-01T04:54:06;640.30;;;605.25;;
68995;SDS011;56056;48.990;12.146;2023-04-01T04:56:32;600.83;;;568.75;;
68995;SDS011;56056;48.990;12.146;2023-04-01T04:58:58;589.45;;;558.97;;
68995;SDS011;56056;48.990;12.146;2023-04-01T05:01:25;609.33;;;577.35;;
68995;SDS011;56056;48.990;12.146;2023-04-01T05:03:51;624.92;;;590.70;;
68995;SDS011;56056;48.990;12.146;2023-04-01T05:06:17;571.85;;;542.50;;
68995;SDS011;56056;48.990;12.146;2023-04-01T05:08:43;650.97;;;607.30;;
68995;SDS011;56056;48.990;12.146;2023-04-01T05:11:10;547.80;;;520.80;;
68995;SDS011;56056;48.990;12.146;2023-04-01T05:13:38;519.58;;;493.75;;
68995;SDS011;56056;48.990;12.146;2023-04-01T05:16:07;557.42;;;529.60;;
68995;SDS011;56056;48.990;12.146;2023-04-01T05:18:34;746.25;;;702.92;;
68995;SDS011;56056;48.990;12.146;2023-04-01T05:21:00;712.80;;;667.88;;
68995;SDS011;56056;48.990;12.146;2023-04-01T05:23:25;685.72;;;645.25;;
68995;SDS011;56056;48.990;12.146;2023-04-01T05:25:51;609.72;;;575.90;;
68995;SDS011;56056;48.990;12.146;2023-04-01T05:28:18;529.35;;;502.70;;
68995;SDS011;56056;48.990;12.146;2023-04-01T05:30:44;628.60;;;590.97;;
68995;SDS011;56056;48.990;12.146;2023-04-01T05:33:10;556.08;;;528.53;;
68995;SDS011;56056;48.990;12.146;2023-04-01T05:35:38;497.77;;;472.73;;
68995;SDS011;56056;48.990;12.146;2023-04-01T05:38:03;594.25;;;559.10;;
68995;SDS011;56056;48.990;12.146;2023-04-01T05:40:30;533.63;;;507.73;;
68995;SDS011;56056;48.990;12.146;2023-04-01T05:42:56;622.72;;;589.25;;
68995;SDS011;56056;48.990;12.146;2023-04-01T05:45:21;562.55;;;533.65;;
68995;SDS011;56056;48.990;12.146;2023-04-01T05:47:47;577.17;;;548.80;;
68995;SDS011;56056;48.990;12.146;2023-04-01T05:50:13;510.80;;;481.92;;
68995;SDS011;56056;48.990;12.146;2023-04-01T05:52:40;680.28;;;641.40;;
68995;SDS011;56056;48.990;12.146;2023-04-01T05:55:06;592.40;;;559.88;;
68995;SDS011;56056;48.990;12.146;2023-04-01T05:57:32;751.65;;;704.28;;
68995;SDS011;56056;48.990;12.146;2023-04-01T05:59:57;706.22;;;667.22;;
68995;SDS011;56056;48.990;12.146;2023-04-01T06:02:23;610.95;;;579.08;;
68995;SDS011;56056;48.990;12.146;2023-04-01T06:04:49;659.08;;;623.40;;
68995;SDS011;56056;48.990;12.146;2023-04-01T06:07:24;698.05;;;658.42;;
68995;SDS011;56056;48.990;12.146;2023-04-01T06:09:51;900.53;;;815.70;;
68995;SDS011;56056;48.990;12.146;2023-04-01T06:12:21;665.55;;;627.85;;
68995;SDS011;56056;48.990;12.146;2023-04-01T06:14:57;774.80;;;726.13;;
68995;SDS011;56056;48.990;12.146;2023-04-01T06:17:30;683.90;;;645.67;;
68995;SDS011;56056;48.990;12.146;2023-04-01T06:20:06;708.55;;;666.08;;
68995;SDS011;56056;48.990;12.146;2023-04-01T06:22:43;925.80;;;817.03;;
68995;SDS011;56056;48.990;12.146;2023-04-01T06:25:24;600.20;;;567.42;;
68995;SDS011;56056;48.990;12.146;2023-04-01T06:28:07;756.53;;;712.78;;
68995;SDS011;56056;48.990;12.146;2023-04-01T06:30:56;845.03;;;786.22;;
68995;SDS011;56056;48.990;12.146;2023-04-01T06:33:36;932.50;;;849.90;;
68995;SDS011;56056;48.990;12.146;2023-04-01T06:36:15;621.20;;;587.35;;
68995;SDS011;56056;48.990;12.146;2023-04-01T06:38:55;603.63;;;570.33;;
68995;SDS011;56056;48.990;12.146;2023-04-01T06:41:32;720.95;;;676.65;;
68995;SDS011;56056;48.990;12.146;2023-04-01T06:44:18;673.75;;;633.00;;
68995;SDS011;56056;48.990;12.146;2023-04-01T06:46:51;649.70;;;615.55;;
68995;SDS011;56056;48.990;12.146;2023-04-01T06:49:24;1097.88;;;710.83;;
68995;SDS011;56056;48.990;12.146;2023-04-01T06:52:11;617.40;;;580.30;;
68995;SDS011;56056;48.990;12.146;2023-04-01T06:54:42;1651.07;;;904.30;;
68995;SDS011;56056;48.990;12.146;2023-04-01T06:57:16;708.30;;;667.63;;
68995;SDS011;56056;48.990;12.146;2023-04-01T06:59:46;636.80;;;600.10;;
68995;SDS011;56056;48.990;12.146;2023-04-01T07:02:16;603.85;;;569.03;;
68995;SDS011;56056;48.990;12.146;2023-04-01T07:04:47;708.25;;;668.10;;
68995;SDS011;56056;48.990;12.146;2023-04-01T07:07:14;670.67;;;632.95;;
68995;SDS011;56056;48.990;12.146;2023-04-01T07:09:47;840.88;;;790.40;;
68995;SDS011;56056;48.990;12.146;2023-04-01T07:12:18;862.40;;;778.05;;
68995;SDS011;56056;48.990;12.146;2023-04-01T07:14:48;904.92;;;838.85;;
68995;SDS011;56056;48.990;12.146;2023-04-01T07:17:15;807.92;;;753.00;;
68995;SDS011;56056;48.990;12.146;2023-04-01T07:19:43;652.50;;;614.10;;
68995;SDS011;56056;48.990;12.146;2023-04-01T07:22:14;838.88;;;772.38;;
68995;SDS011;56056;48.990;12.146;2023-04-01T07:24:46;758.90;;;711.65;;
68995;SDS011;56056;48.990;12.146;2023-04-01T07:27:13;816.90;;;759.03;;
68995;SDS011;56056;48.990;12.146;2023-04-01T07:29:41;781.38;;;734.10;;
68995;SDS011;56056;48.990;12.146;2023-04-01T07:32:17;912.30;;;782.60;;
68995;SDS011;56056;48.990;12.146;2023-04-01T07:35:03;720.97;;;678.47;;
68995;SDS011;56056;48.990;12.146;2023-04-01T07:37:37;680.78;;;639.08;;
68995;SDS011;56056;48.990;12.146;2023-04-01T07:40:10;759.88;;;715.40;;
68995;SDS011;56056;48.990;12.146;2023-04-01T07:42:47;842.90;;;778.75;;
68995;SDS011;56056;48.990;12.146;2023-04-01T07:45:23;844.90;;;771.92;;
68995;SDS011;56056;48.990;12.146;2023-04-01T07:47:59;637.72;;;601.47;;
68995;SDS011;56056;48.990;12.146;2023-04-01T07:50:34;701.78;;;662.83;;
68995;SDS011;56056;48.990;12.146;2023-04-01T07:53:05;933.55;;;854.35;;
68995;SDS011;56056;48.990;12.146;2023-04-01T07:55:36;719.95;;;678.70;;
68995;SDS011;56056;48.990;12.146;2023-04-01T07:58:06;989.30;;;895.90;;
68995;SDS011;56056;48.990;12.146;2023-04-01T08:00:37;699.58;;;658.80;;
68995;SDS011;56056;48.990;12.146;2023-04-01T08:03:11;808.85;;;754.72;;
68995;SDS011;56056;48.990;12.146;2023-04-01T08:05:47;737.67;;;694.75;;
68995;SDS011;56056;48.990;12.146;2023-04-01T08:08:17;716.15;;;675.70;;
68995;SDS011;56056;48.990;12.146;2023-04-01T08:10:46;739.15;;;697.33;;
68995;SDS011;56056;48.990;12.146;2023-04-01T08:13:15;888.97;;;830.33;;
68995;SDS011;56056;48.990;12.146;2023-04-01T08:15:49;814.13;;;763.70;;
68995;SDS011;56056;48.990;12.146;2023-04-01T08:18:22;867.72;;;808.40;;
68995;SDS011;56056;48.990;12.146;2023-04-01T08:20:56;757.65;;;715.15;;
68995;SDS011;56056;48.990;12.146;2023-04-01T08:23:24;1020.88;;;918.70;;
68995;SDS011;56056;48.990;12.146;2023-04-01T08:25:52;959.47;;;895.75;;
68995;SDS011;56056;48.990;12.146;2023-04-01T08:28:20;1011.42;;;932.58;;
68995;SDS011;56056;48.990;12.146;2023-04-01T08:30:52;1088.15;;;989.28;;
68995;SDS011;56056;48.990;12.146;2023-04-01T08:33:21;1162.90;;;994.25;;
68995;SDS011;56056;48.990;12.146;2023-04-01T08:35:52;1573.95;;;999.90;;
68995;SDS011;56056;48.990;12.146;2023-04-01T08:38:21;1468.07;;;999.90;;
68995;SDS011;56056;48.990;12.146;2023-04-01T08:44:11;1189.60;;;999.90;;
68995;SDS011;56056;48.990;12.146;2023-04-01T08:47:08;1437.25;;;999.90;;
68995;SDS011;56056;48.990;12.146;2023-04-01T08:49:48;1241.30;;;999.90;;
68995;SDS011;56056;48.990;12.146;2023-04-01T08:52:29;1400.57;;;999.90;;
68995;SDS011;56056;48.990;12.146;2023-04-01T08:55:04;1536.65;;;999.90;;
68995;SDS011;56056;48.990;12.146;2023-04-01T08:57:50;1149.55;;;999.90;;
68995;SDS011;56056;48.990;12.146;2023-04-01T09:00:23;1053.97;;;950.65;;
68995;SDS011;56056;48.990;12.146;2023-04-01T09:05:55;1086.78;;;971.33;;
68995;SDS011;56056;48.990;12.146;2023-04-01T09:08:47;1016.97;;;913.97;;
68995;SDS011;56056;48.990;12.146;2023-04-01T09:11:26;992.00;;;899.00;;
68995;SDS011;56056;48.990;12.146;2023-04-01T09:14:07;881.00;;;810.60;;
68995;SDS011;56056;48.990;12.146;2023-04-01T09:19:49;1986.63;;;999.90;;
68995;SDS011;56056;48.990;12.146;2023-04-01T09:22:26;901.13;;;837.13;;
68995;SDS011;56056;48.990;12.146;2023-04-01T09:25:15;1876.00;;;999.90;;
68995;SDS011;56056;48.990;12.146;2023-04-01T09:27:52;1109.53;;;996.83;;
68995;SDS011;56056;48.990;12.146;2023-04-01T09:30:31;851.55;;;795.72;;
68995;SDS011;56056;48.990;12.146;2023-04-01T09:33:10;1699.88;;;999.90;;
68995;SDS011;56056;48.990;12.146;2023-04-01T09:35:50;970.03;;;901.78;;
68995;SDS011;56056;48.990;12.146;2023-04-01T09:38:27;1080.82;;;965.50;;
68995;SDS011;56056;48.990;12.146;2023-04-01T09:40:55;1078.03;;;952.05;;
68995;SDS011;56056;48.990;12.146;2023-04-01T09:43:25;865.38;;;798.50;;
68995;SDS011;56056;48.990;12.146;2023-04-01T09:46:04;1102.75;;;993.65;;
68995;SDS011;56056;48.990;12.146;2023-04-01T09:48:43;980.75;;;906.25;;
68995;SDS011;56056;48.990;12.146;2023-04-01T09:51:24;1036.45;;;949.15;;
68995;SDS011;56056;48.990;12.146;2023-04-01T09:53:57;1121.88;;;999.90;;
68995;SDS011;56056;48.990;12.146;2023-04-01T09:56:41;921.67;;;847.08;;
68995;SDS011;56056;48.990;12.146;2023-04-01T09:59:47;927.85;;;863.70;;
68995;SDS011;56056;48.990;12.146;2023-04-01T10:02:31;1045.40;;;951.35;;
68995;SDS011;56056;48.990;12.146;2023-04-01T10:05:16;1024.80;;;926.08;;
68995;SDS011;56056;48.990;12.146;2023-04-01T10:08:23;950.95;;;884.00;;
68995;SDS011;56056;48.990;12.146;2023-04-01T10:16:44;885.55;;;831.33;;
68995;SDS011;56056;48.990;12.146;2023-04-01T10:19:49;835.80;;;782.88;;
68995;SDS011;56056;48.990;12.146;2023-04-01T10:22:35;975.85;;;895.38;;
68995;SDS011;56056;48.990;12.146;2023-04-01T10:25:23;957.10;;;889.58;;
68995;SDS011;56056;48.990;12.146;2023-04-01T10:31:07;952.00;;;880.58;;
68995;SDS011;56056;48.990;12.146;2023-04-01T10:36:53;868.13;;;815.22;;
68995;SDS011;56056;48.990;12.146;2023-04-01T10:39:37;844.47;;;793.50;;
68995;SDS011;56056;48.990;12.146;2023-04-01T10:42:25;780.80;;;735.47;;
68995;SDS011;56056;48.990;12.146;2023-04-01T10:48:33;812.78;;;766.17;;
68995;SDS011;56056;48.990;12.146;2023-04-01T10:51:25;958.22;;;888.75;;
68995;SDS011;56056;48.990;12.146;2023-04-01T10:54:02;1020.63;;;937.05;;
68995;SDS011;56056;48.990;12.146;2023-04-01T10:56:42;945.90;;;880.75;;
68995;SDS011;56056;48.990;12.146;2023-04-01T10:59:18;1057.95;;;957.28;;
68995;SDS011;56056;48.990;12.146;2023-04-01T11:08:03;954.15;;;887.78;;
68995;SDS011;56056;48.990;12.146;2023-04-01T11:10:57;982.33;;;903.53;;
68995;SDS011;56056;48.990;12.146;2023-04-01T11:17:05;843.03;;;794.08;;
68995;SDS011;56056;48.990;12.146;2023-04-01T11:20:02;894.15;;;836.72;;
68995;SDS011;56056;48.990;12.146;2023-04-01T11:22:58;923.50;;;856.80;;
68995;SDS011;56056;48.990;12.146;2023-04-01T11:25:44;1164.45;;;999.90;;
68995;SDS011;56056;48.990;12.146;2023-04-01T11:28:27;964.17;;;889.35;;
68995;SDS011;56056;48.990;12.146;2023-04-01T11:31:11;902.08;;;844.70;;
68995;SDS011;56056;48.990;12.146;2023-04-01T11:33:50;994.55;;;904.28;;
68995;SDS011;56056;48.990;12.146;2023-04-01T11:36:23;947.22;;;875.08;;
68995;SDS011;56056;48.990;12.146;2023-04-01T11:39:00;1042.40;;;957.20;;
68995;SDS011;56056;48.990;12.146;2023-04-01T11:41:32;878.05;;;814.55;;
68995;SDS011;56056;48.990;12.146;2023-04-01T11:44:14;926.67;;;868.05;;
68995;SDS011;56056;48.990;12.146;2023-04-01T11:46:46;1045.47;;;942.15;;
68995;SDS011;56056;48.990;12.146;2023-04-01T11:49:23;981.42;;;910.92;;
68995;SDS011;56056;48.990;12.146;2023-04-01T11:51:59;968.08;;;889.63;;
68995;SDS011;56056;48.990;12.146;2023-04-01T11:54:45;981.45;;;905.47;;
68995;SDS011;56056;48.990;12.146;2023-04-01T11:57:35;1032.40;;;953.90;;
68995;SDS011;56056;48.990;12.146;2023-04-01T12:00:23;935.00;;;870.92;;
68995;SDS011;56056;48.990;12.146;2023-04-01T12:03:13;925.45;;;858.83;;
68995;SDS011;56056;48.990;12.146;2023-04-01T12:05:48;1072.60;;;958.75;;
68995;SDS011;56056;48.990;12.146;2023-04-01T12:08:21;1828.70;;;999.90;;
68995;SDS011;56056;48.990;12.146;2023-04-01T12:10:55;966.08;;;893.58;;
68995;SDS011;56056;48.990;12.146;2023-04-01T12:13:29;1097.90;;;918.05;;
68995;SDS011;56056;48.990;12.146;2023-04-01T12:16:06;1532.35;;;872.60;;
68995;SDS011;56056;48.990;12.146;2023-04-01T12:18:42;1207.88;;;827.65;;
68995;SDS011;56056;48.990;12.146;2023-04-01T12:21:17;1072.95;;;968.60;;
68995;SDS011;56056;48.990;12.146;2023-04-01T12:23:56;1320.28;;;999.90;;
68995;SDS011;56056;48.990;12.146;2023-04-01T12:26:43;1090.05;;;978.38;;
68995;SDS011;56056;48.990;12.146;2023-04-01T12:29:23;1225.32;;;675.00;;
68995;SDS011;56056;48.990;12.146;2023-04-01T12:32:06;1823.13;;;999.90;;
68995;SDS011;56056;48.990;12.146;2023-04-01T12:34:49;1105.68;;;996.33;;
68995;SDS011;56056;48.990;12.146;2023-04-01T12:37:41;1182.28;;;951.55;;
68995;SDS011;56056;48.990;12.146;2023-04-01T12:40:20;924.15;;;861.33;;
68995;SDS011;56056;48.990;12.146;2023-04-01T12:42:55;990.25;;;909.83;;
68995;SDS011;56056;48.990;12.146;2023-04-01T12:45:29;1713.30;;;999.90;;
68995;SDS011;56056;48.990;12.146;2023-04-01T12:48:01;978.67;;;912.45;;
68995;SDS011;56056;48.990;12.146;2023-04-01T12:50:34;1315.10;;;999.90;;
68995;SDS011;56056;48.990;12.146;2023-04-01T12:53:27;851.78;;;797.13;;
68995;SDS011;56056;48.990;12.146;2023-04-01T12:56:04;840.35;;;780.20;;
68995;SDS011;56056;48.990;12.146;2023-04-01T12:58:43;874.88;;;820.70;;
68995;SDS011;56056;48.990;12.146;2023-04-01T13:01:43;839.65;;;787.72;;
68995;SDS011;56056;48.990;12.146;2023-04-01T13:10:30;814.10;;;761.33;;
68995;SDS011;56056;48.990;12.146;2023-04-01T13:13:13;806.70;;;753.17;;
68995;SDS011;56056;48.990;12.146;2023-04-01T13:15:48;770.45;;;720.97;;
68995;SDS011;56056;48.990;12.146;2023-04-01T13:18:21;1244.53;;;978.15;;
68995;SDS011;56056;48.990;12.146;2023-04-01T13:20:55;810.50;;;760.95;;
68995;SDS011;56056;48.990;12.146;2023-04-01T13:23:32;753.55;;;708.33;;
68995;SDS011;56056;48.990;12.146;2023-04-01T13:26:03;892.92;;;830.97;;
68995;SDS011;56056;48.990;12.146;2023-04-01T13:28:35;919.40;;;843.13;;
68995;SDS011;56056;48.990;12.146;2023-04-01T13:31:05;839.97;;;784.67;;
68995;SDS011;56056;48.990;12.146;2023-04-01T13:33:36;926.40;;;862.20;;
68995;SDS011;56056;48.990;12.146;2023-04-01T13:36:17;1007.25;;;918.58;;
68995;SDS011;56056;48.990;12.146;2023-04-01T13:38:51;898.40;;;838.40;;
68995;SDS011;56056;48.990;12.146;2023-04-01T13:41:35;921.28;;;853.53;;
68995;SDS011;56056;48.990;12.146;2023-04-01T13:44:18;926.15;;;862.90;;
68995;SDS011;56056;48.990;12.146;2023-04-01T13:46:52;963.78;;;884.95;;
68995;SDS011;56056;48.990;12.146;2023-04-01T13:49:31;1705.90;;;995.92;;
68995;SDS011;56056;48.990;12.146;2023-04-01T13:52:22;833.38;;;778.22;;
68995;SDS011;56056;48.990;12.146;2023-04-01T13:58:16;900.00;;;821.65;;
68995;SDS011;56056;48.990;12.146;2023-04-01T14:00:56;811.30;;;759.53;;
68995;SDS011;56056;48.990;12.146;2023-04-01T14:03:30;830.53;;;776.33;;
68995;SDS011;56056;48.990;12.146;2023-04-01T14:06:19;1089.50;;;985.42;;
68995;SDS011;56056;48.990;12.146;2023-04-01T14:11:48;870.72;;;815.00;;
68995;SDS011;56056;48.990;12.146;2023-04-01T14:14:21;850.22;;;794.03;;
68995;SDS011;56056;48.990;12.146;2023-04-01T14:16:57;853.33;;;791.90;;
68995;SDS011;56056;48.990;12.146;2023-04-01T14:19:36;820.67;;;760.78;;
68995;SDS011;56056;48.990;12.146;2023-04-01T14:22:38;711.40;;;669.30;;
68995;SDS011;56056;48.990;12.146;2023-04-01T14:25:16;853.08;;;798.92;;
68995;SDS011;56056;48.990;12.146;2023-04-01T14:27:56;785.25;;;738.75;;
68995;SDS011;56056;48.990;12.146;2023-04-01T14:30:42;902.20;;;829.75;;
68995;SDS011;56056;48.990;12.146;2023-04-01T14:33:15;808.22;;;756.15;;
68995;SDS011;56056;48.990;12.146;2023-04-01T14:35:48;801.95;;;750.50;;
68995;SDS011;56056;48.990;12.146;2023-04-01T14:38:30;970.55;;;894.42;;
68995;SDS011;56056;48.990;12.146;2023-04-01T14:41:06;910.28;;;839.08;;
68995;SDS011;56056;48.990;12.146;2023-04-01T14:46:39;877.63;;;804.45;;
68995;SDS011;56056;48.990;12.146;2023-04-01T14:49:30;886.70;;;827.55;;
68995;SDS011;56056;48.990;12.146;2023-04-01T14:52:04;920.40;;;858.25;;
68995;SDS011;56056;48.990;12.146;2023-04-01T14:54:35;875.72;;;818.10;;
68995;SDS011;56056;48.990;12.146;2023-04-01T14:57:05;933.83;;;869.55;;
68995;SDS011;56056;48.990;12.146;2023-04-01T14:59:39;1022.22;;;938.63;;
68995;SDS011;56056;48.990;12.146;2023-04-01T15:02:11;942.33;;;876.25;;
68995;SDS011;56056;48.990;12.146;2023-04-01T15:04:47;1999.90;;;999.90;;
68995;SDS011;56056;48.990;12.146;2023-04-01T15:07:26;997.47;;;930.17;;